Time;durP1;ratioP1;P1;durP2;ratioP2;P2;SDS_P1;SDS_P2;PMS_P1;PMS_P2;Temp;Humidity;BMP_temperature;BMP_pressure;BME280_temperature;BME280_humidity;BME280_pressure;Samples;Min_cycle;Max_cycle;Signal;HPM_P1;HPM_P2
2022/02/06 00:02:21;;;;;;;7.05;2.92;;;;;;;;;;5052684;28;20024;-69
2022/02/06 00:05:07;;;;;;;8.50;3.33;;;;;;;;;;5052449;28;20379;-69
2022/02/06 00:07:52;;;;;;;9.27;3.00;;;;;;;;;;5053655;28;20040;-69
2022/02/06 00:10:39;;;;;;;12.73;3.88;;;;;;;;;;5053275;28;20480;-67
2022/02/06 00:13:24;;;;;;;9.23;3.15;;;;;;;;;;5053266;28;20464;-61
2022/02/06 00:16:10;;;;;;;7.10;2.92;;;;;;;;;;5052714;28;20430;-60
2022/02/06 00:18:55;;;;;;;7.93;2.80;;;;;;;;;;5053149;28;20033;-60
2022/02/06 00:21:41;;;;;;;8.98;2.85;;;;;;;;;;5051992;28;20143;-61
2022/02/06 00:24:39;;;;;;;7.40;2.67;;;;;;;;;;5052303;28;20029;-60
2022/02/06 00:27:42;;;;;;;8.55;2.72;;;;;;;;;;5052930;28;20029;-60
2022/02/06 00:30:40;;;;;;;10.48;2.70;;;;;;;;;;5052498;28;20033;-59
2022/02/06 00:39:23;;;;;;;7.80;2.53;;;;;;;;;;5029415;28;20033;-72
2022/02/06 00:42:10;;;;;;;10.07;2.58;;;;;;;;;;5052050;28;20531;-70
2022/02/06 00:44:55;;;;;;;8.00;2.58;;;;;;;;;;5052943;28;20041;-70
2022/02/06 00:47:43;;;;;;;8.57;2.80;;;;;;;;;;5052188;28;20399;-70
2022/02/06 00:50:29;;;;;;;7.35;3.38;;;;;;;;;;5052464;28;20103;-68
2022/02/06 00:53:17;;;;;;;9.30;3.00;;;;;;;;;;5052491;28;20487;-71
2022/02/06 00:56:02;;;;;;;11.40;2.75;;;;;;;;;;5052927;28;20041;-74
2022/02/06 00:58:48;;;;;;;10.68;3.03;;;;;;;;;;5056360;28;20039;-71
2022/02/06 01:01:33;;;;;;;6.90;2.38;;;;;;;;;;5056290;28;20033;-71
2022/02/06 01:04:19;;;;;;;8.38;2.25;;;;;;;;;;5056242;28;20029;-71
2022/02/06 01:07:05;;;;;;;9.63;2.85;;;;;;;;;;5041792;28;20045;-71
2022/02/06 01:09:50;;;;;;;7.75;2.40;;;;;;;;;;5056282;28;20033;-71
2022/02/06 01:12:37;;;;;;;7.57;2.67;;;;;;;;;;5056215;28;20171;-70
2022/02/06 01:15:28;;;;;;;11.75;2.78;;;;;;;;;;5055983;28;20036;-71
2022/02/06 01:18:22;;;;;;;7.93;1.83;;;;;;;;;;5056066;28;20024;-70
2022/02/06 01:21:55;;;;;;;6.93;2.13;;;;;;;;;;5055358;28;20488;-71
2022/02/06 01:24:24;;;;;;;6.38;2.03;;;;;;;;;;5054937;28;20055;-70
2022/02/06 01:27:15;;;;;;;5.07;1.98;;;;;;;;;;5054662;28;20567;-59
2022/02/06 01:30:11;;;;;;;7.32;2.40;;;;;;;;;;5054330;28;20029;-63
2022/02/06 01:33:03;;;;;;;6.82;2.40;;;;;;;;;;5054229;28;20059;-63
2022/02/06 01:35:57;;;;;;;8.45;2.30;;;;;;;;;;5054993;28;20546;-62
2022/02/06 01:41:40;;;;;;;10.65;2.05;;;;;;;;;;5054436;28;20041;-63
2022/02/06 01:44:44;;;;;;;8.48;1.85;;;;;;;;;;5055142;28;20036;-63
2022/02/06 02:02:59;;;;;;;5.60;1.50;;;;;;;;;;5054578;28;20468;-71
2022/02/06 02:06:31;;;;;;;6.97;1.98;;;;;;;;;;5055610;28;20494;-63
2022/02/06 02:09:17;;;;;;;5.35;1.60;;;;;;;;;;5054017;28;20052;-68
2022/02/06 02:22:07;;;;;;;6.97;1.80;;;;;;;;;;5054263;28;20467;-70
2022/02/06 02:33:41;;;;;;;7.65;2.25;;;;;;;;;;5053967;28;20383;-61
2022/02/06 02:45:52;;;;;;;7.00;2.05;;;;;;;;;;5052949;28;20033;-67
2022/02/06 02:48:40;;;;;;;6.50;3.08;;;;;;;;;;5053925;28;20044;-67
2022/02/06 02:51:31;;;;;;;8.10;2.00;;;;;;;;;;5053588;28;20037;-67
2022/02/06 02:54:24;;;;;;;9.18;1.90;;;;;;;;;;5053816;28;20395;-67
2022/02/06 02:57:26;;;;;;;11.88;1.83;;;;;;;;;;5054266;28;20036;-67
2022/02/06 03:00:25;;;;;;;5.70;2.00;;;;;;;;;;5053001;28;20499;-64
2022/02/06 03:03:18;;;;;;;7.72;1.77;;;;;;;;;;5054261;28;20029;-65
2022/02/06 03:06:05;;;;;;;4.38;1.70;;;;;;;;;;5054213;28;20033;-65
2022/02/06 03:08:52;;;;;;;7.30;2.20;;;;;;;;;;5054884;28;20029;-65
2022/02/06 03:11:38;;;;;;;5.20;2.03;;;;;;;;;;5054216;28;20041;-65
2022/02/06 03:14:38;;;;;;;6.65;2.15;;;;;;;;;;5054117;28;20029;-65
2022/02/06 03:17:44;;;;;;;4.85;2.28;;;;;;;;;;5053413;28;20387;-73
2022/02/06 03:20:30;;;;;;;5.13;1.20;;;;;;;;;;5053178;28;20429;-60
2022/02/06 03:23:16;;;;;;;6.22;1.90;;;;;;;;;;5053984;28;20032;-60
2022/02/06 03:26:03;;;;;;;7.32;1.95;;;;;;;;;;5052720;28;20121;-62
2022/02/06 03:28:49;;;;;;;7.63;2.00;;;;;;;;;;5052650;28;20029;-62
2022/02/06 03:31:36;;;;;;;4.30;1.48;;;;;;;;;;5053898;28;20063;-62
2022/02/06 03:34:22;;;;;;;5.53;1.58;;;;;;;;;;5053029;28;20029;-61
2022/02/06 03:37:10;;;;;;;7.65;1.98;;;;;;;;;;5053731;28;20028;-61
2022/02/06 03:39:57;;;;;;;5.72;1.63;;;;;;;;;;5052390;28;20025;-62
2022/02/06 03:42:53;;;;;;;6.60;1.65;;;;;;;;;;5053412;28;20037;-63
2022/02/06 03:45:44;;;;;;;6.05;1.77;;;;;;;;;;5038031;28;20044;-66
2022/02/06 03:48:45;;;;;;;4.50;1.50;;;;;;;;;;5037942;28;20131;-63
2022/02/06 03:51:33;;;;;;;5.90;1.83;;;;;;;;;;5052818;28;20024;-65
2022/02/06 03:54:19;;;;;;;9.07;2.17;;;;;;;;;;5053390;28;20033;-66
2022/02/06 03:57:04;;;;;;;10.00;1.50;;;;;;;;;;5038167;28;20029;-65
2022/02/06 03:59:50;;;;;;;3.97;1.50;;;;;;;;;;5052881;28;20116;-65
2022/02/06 04:02:36;;;;;;;6.72;1.90;;;;;;;;;;5051462;28;20028;-63
2022/02/06 04:05:21;;;;;;;8.88;2.22;;;;;;;;;;5052203;28;20037;-63
2022/02/06 04:08:08;;;;;;;8.48;1.65;;;;;;;;;;5053003;28;20021;-65
2022/02/06 04:10:54;;;;;;;5.85;1.80;;;;;;;;;;5051982;28;20467;-65
2022/02/06 04:16:54;;;;;;;5.43;1.48;;;;;;;;;;5032664;28;20076;-68
2022/02/06 04:19:40;;;;;;;9.65;1.65;;;;;;;;;;5053073;28;20032;-68
2022/02/06 04:22:25;;;;;;;7.40;1.52;;;;;;;;;;5052064;28;20031;-69
2022/02/06 04:25:11;;;;;;;6.45;1.65;;;;;;;;;;5051739;28;20029;-69
2022/02/06 04:27:56;;;;;;;4.07;1.63;;;;;;;;;;5051804;28;20036;-69
2022/02/06 04:30:42;;;;;;;9.07;2.13;;;;;;;;;;5055010;28;20127;-61
2022/02/06 04:33:27;;;;;;;7.05;1.90;;;;;;;;;;5056604;28;20099;-64
2022/02/06 04:36:14;;;;;;;4.53;1.63;;;;;;;;;;5056579;28;20033;-63
2022/02/06 04:42:42;;;;;;;6.28;1.55;;;;;;;;;;5056896;28;20472;-63
2022/02/06 05:32:47;;;;;;;5.25;2.50;;;;;;;;;;5056086;28;20503;-61
2022/02/06 05:35:35;;;;;;;7.72;1.83;;;;;;;;;;5054534;28;20063;-60
2022/02/06 05:38:21;;;;;;;5.20;2.00;;;;;;;;;;5054712;28;20028;-61
2022/02/06 05:41:06;;;;;;;7.93;1.88;;;;;;;;;;5054974;28;20021;-61
2022/02/06 05:43:52;;;;;;;7.63;3.33;;;;;;;;;;5054849;28;20044;-60
2022/02/06 05:46:38;;;;;;;9.88;1.83;;;;;;;;;;5055332;28;20041;-63
2022/02/06 05:49:23;;;;;;;8.48;2.08;;;;;;;;;;5054443;28;20057;-63
2022/02/06 05:52:09;;;;;;;7.25;1.90;;;;;;;;;;5055541;28;20033;-64
2022/02/06 05:54:54;;;;;;;4.65;1.50;;;;;;;;;;5054256;28;20467;-64
2022/02/06 05:57:40;;;;;;;6.63;1.85;;;;;;;;;;5040066;28;20048;-64
2022/02/06 06:00:26;;;;;;;5.00;1.50;;;;;;;;;;5053737;28;20029;-64
2022/02/06 06:03:11;;;;;;;8.50;2.35;;;;;;;;;;5053396;28;20025;-68
2022/02/06 06:05:57;;;;;;;7.38;2.30;;;;;;;;;;5079736;22;20475;-78
2022/02/06 06:08:42;;;;;;;8.65;2.05;;;;;;;;;;5049037;28;20121;-75
2022/02/06 06:11:27;;;;;;;7.47;2.42;;;;;;;;;;5048386;28;20033;-74
2022/02/06 06:14:13;;;;;;;6.80;1.90;;;;;;;;;;5050694;28;20128;-72
2022/02/06 06:16:58;;;;;;;4.78;1.90;;;;;;;;;;5052963;28;20036;-70
2022/02/06 06:19:46;;;;;;;5.82;1.60;;;;;;;;;;5050321;28;20079;-71
2022/02/06 06:22:32;;;;;;;8.10;2.08;;;;;;;;;;5042650;28;20043;-77
2022/02/06 06:25:17;;;;;;;10.70;2.30;;;;;;;;;;5050868;28;20060;-77
2022/02/06 06:28:02;;;;;;;9.68;1.77;;;;;;;;;;5048420;28;20032;-77
2022/02/06 06:30:48;;;;;;;6.60;1.88;;;;;;;;;;5053566;28;20495;-73
2022/02/06 06:33:33;;;;;;;6.60;1.55;;;;;;;;;;5069683;28;20119;-74
2022/02/06 06:36:21;;;;;;;10.32;2.28;;;;;;;;;;5053354;28;20028;-74
2022/02/06 06:39:07;;;;;;;7.15;2.28;;;;;;;;;;5055501;28;20028;-77
2022/02/06 06:41:52;;;;;;;7.75;2.78;;;;;;;;;;5054859;28;20039;-71
2022/02/06 06:44:38;;;;;;;8.10;1.77;;;;;;;;;;5054910;28;20375;-74
2022/02/06 06:47:23;;;;;;;6.55;2.00;;;;;;;;;;5053956;28;20112;-74
2022/02/06 06:50:08;;;;;;;9.40;2.53;;;;;;;;;;5055900;28;20040;-73
2022/02/06 06:52:54;;;;;;;6.55;1.90;;;;;;;;;;5068115;28;20040;-73
2022/02/06 06:55:43;;;;;;;7.60;2.50;;;;;;;;;;5040145;28;20496;-74
2022/02/06 06:58:33;;;;;;;7.72;2.10;;;;;;;;;;5049886;28;20104;-76
2022/02/06 07:04:16;;;;;;;4.75;1.27;;;;;;;;;;5040596;28;20119;-72
2022/02/06 07:07:01;;;;;;;6.43;1.88;;;;;;;;;;5071887;28;20382;-71
2022/02/06 07:09:46;;;;;;;7.95;1.88;;;;;;;;;;5051312;28;20025;-71
2022/02/06 07:12:31;;;;;;;7.72;2.50;;;;;;;;;;5054646;28;20593;-71
2022/02/06 07:15:17;;;;;;;6.50;1.77;;;;;;;;;;5067311;28;20044;-71
2022/02/06 07:18:02;;;;;;;10.40;2.30;;;;;;;;;;5030708;28;20056;-77
2022/02/06 07:20:48;;;;;;;4.78;1.88;;;;;;;;;;5067446;28;20036;-65
2022/02/06 07:23:33;;;;;;;6.32;1.63;;;;;;;;;;5048781;28;20094;-64
2022/02/06 07:26:19;;;;;;;8.23;2.80;;;;;;;;;;5055757;28;20462;-66
2022/02/06 07:29:05;;;;;;;8.30;1.75;;;;;;;;;;5050777;28;20463;-65
2022/02/06 07:31:51;;;;;;;8.95;2.47;;;;;;;;;;5053565;28;20031;-68
2022/02/06 07:34:37;;;;;;;11.65;2.17;;;;;;;;;;5037559;28;20073;-66
2022/02/06 07:37:22;;;;;;;6.13;2.08;;;;;;;;;;5068311;28;20584;-82
2022/02/06 07:40:08;;;;;;;4.43;1.70;;;;;;;;;;5045492;28;20388;-73
2022/02/06 07:42:53;;;;;;;7.60;1.85;;;;;;;;;;5047036;28;20036;-72
2022/02/06 07:45:40;;;;;;;5.22;1.77;;;;;;;;;;5052219;28;20056;-73
2022/02/06 07:48:25;;;;;;;7.95;1.90;;;;;;;;;;5039164;28;20032;-73
2022/02/06 07:51:10;;;;;;;19.35;2.33;;;;;;;;;;5025012;28;20059;-72
2022/02/06 07:53:55;;;;;;;9.32;2.00;;;;;;;;;;5049007;28;20032;-65
2022/02/06 07:56:41;;;;;;;6.68;2.10;;;;;;;;;;5030702;28;20116;-72
2022/02/06 07:59:26;;;;;;;6.85;1.90;;;;;;;;;;5048738;28;20071;-72
2022/02/06 08:02:11;;;;;;;8.68;2.00;;;;;;;;;;5046443;28;20063;-73
2022/02/06 08:04:57;;;;;;;7.95;2.13;;;;;;;;;;5042619;28;20025;-72
2022/02/06 08:07:43;;;;;;;6.22;1.70;;;;;;;;;;5041687;28;20123;-72
2022/02/06 08:10:29;;;;;;;5.00;1.70;;;;;;;;;;5053796;28;20475;-72
2022/02/06 08:13:25;;;;;;;8.57;2.22;;;;;;;;;;5034381;28;20056;-73
2022/02/06 08:16:10;;;;;;;7.38;1.83;;;;;;;;;;5042168;28;20044;-72
2022/02/06 08:18:58;;;;;;;10.13;1.95;;;;;;;;;;5046310;28;20037;-71
2022/02/06 08:21:43;;;;;;;7.03;2.10;;;;;;;;;;5034082;28;20108;-73
2022/02/06 08:24:28;;;;;;;7.55;1.73;;;;;;;;;;5044462;28;20501;-73
2022/02/06 08:27:14;;;;;;;5.32;1.70;;;;;;;;;;5051614;28;20045;-77
2022/02/06 08:30:00;;;;;;;7.82;2.33;;;;;;;;;;5033961;28;20050;-85
2022/02/06 08:32:45;;;;;;;7.65;2.10;;;;;;;;;;5052319;28;20027;-73
2022/02/06 08:35:30;;;;;;;8.25;1.88;;;;;;;;;;5049687;28;20032;-76
2022/02/06 08:38:16;;;;;;;9.15;1.83;;;;;;;;;;5037230;28;20727;-79
2022/02/06 08:41:01;;;;;;;5.60;1.83;;;;;;;;;;5052954;28;20035;-76
2022/02/06 08:43:46;;;;;;;11.68;1.80;;;;;;;;;;5046793;28;20025;-75
2022/02/06 08:46:31;;;;;;;5.45;1.85;;;;;;;;;;5043797;28;20033;-74
2022/02/06 08:49:17;;;;;;;11.07;2.75;;;;;;;;;;5029975;28;20503;-79
2022/02/06 08:52:02;;;;;;;4.30;1.55;;;;;;;;;;5036016;28;20038;-71
2022/02/06 08:54:48;;;;;;;8.38;2.58;;;;;;;;;;5051438;28;20028;-71
2022/02/06 08:57:34;;;;;;;6.28;2.10;;;;;;;;;;5063534;28;20464;-72
2022/02/06 09:00:21;;;;;;;4.85;1.75;;;;;;;;;;5051348;28;20082;-72
2022/02/06 09:03:07;;;;;;;10.23;1.95;;;;;;;;;;5042296;28;20056;-73
2022/02/06 09:05:52;;;;;;;6.60;2.33;;;;;;;;;;5048599;28;20029;-74
2022/02/06 09:08:37;;;;;;;7.57;2.10;;;;;;;;;;5036394;28;20107;-68
2022/02/06 09:11:24;;;;;;;10.52;1.95;;;;;;;;;;5046179;28;20081;-65
2022/02/06 09:14:09;;;;;;;7.50;2.10;;;;;;;;;;5057910;28;20033;-68
2022/02/06 09:16:55;;;;;;;6.88;1.85;;;;;;;;;;5064869;28;20112;-68
2022/02/06 09:19:40;;;;;;;7.43;1.88;;;;;;;;;;5042591;28;20581;-68
2022/02/06 09:22:26;;;;;;;9.52;2.20;;;;;;;;;;5055842;28;20036;-68
2022/02/06 09:25:12;;;;;;;6.07;1.40;;;;;;;;;;5048302;28;20163;-90
2022/02/06 09:27:57;;;;;;;5.93;1.75;;;;;;;;;;5067600;28;20105;-68
2022/02/06 09:30:42;;;;;;;6.35;2.00;;;;;;;;;;5066719;28;20025;-65
2022/02/06 09:36:13;;;;;;;5.43;1.95;;;;;;;;;;5062604;28;20499;-63
2022/02/06 09:38:58;;;;;;;5.13;1.60;;;;;;;;;;5049587;28;20590;-64
2022/02/06 09:41:44;;;;;;;5.95;1.67;;;;;;;;;;5052267;28;20357;-64
2022/02/06 09:44:30;;;;;;;7.15;2.65;;;;;;;;;;5062546;28;20035;-66
2022/02/06 09:47:20;;;;;;;4.95;1.42;;;;;;;;;;5046233;28;20584;-68
2022/02/06 09:50:06;;;;;;;3.92;1.45;;;;;;;;;;5053510;28;20036;-70
2022/02/06 09:52:52;;;;;;;4.45;1.70;;;;;;;;;;5059439;28;20040;-68
2022/02/06 09:55:38;;;;;;;6.90;2.10;;;;;;;;;;5037710;28;20033;-65
2022/02/06 10:01:09;;;;;;;9.02;1.73;;;;;;;;;;5057251;28;20044;-67
2022/02/06 10:04:03;;;;;;;4.68;1.50;;;;;;;;;;5051961;28;20041;-87
2022/02/06 10:06:48;;;;;;;7.25;2.05;;;;;;;;;;5048354;28;20037;-69
2022/02/06 10:09:38;;;;;;;5.53;1.77;;;;;;;;;;5055213;28;20055;-67
2022/02/06 10:12:24;;;;;;;5.72;1.80;;;;;;;;;;5041399;28;20511;-69
2022/02/06 10:15:10;;;;;;;9.00;1.85;;;;;;;;;;5032812;28;20083;-68
2022/02/06 10:17:56;;;;;;;7.07;1.95;;;;;;;;;;5036752;28;20025;-69
2022/02/06 10:20:43;;;;;;;5.43;1.55;;;;;;;;;;5049515;28;20028;-80
2022/02/06 10:26:23;;;;;;;4.20;1.50;;;;;;;;;;5037976;28;20037;-69
2022/02/06 10:32:04;;;;;;;4.45;1.70;;;;;;;;;;5038646;28;20028;-64
2022/02/06 10:34:49;;;;;;;8.63;2.38;;;;;;;;;;5045266;28;20029;-66
2022/02/06 10:37:35;;;;;;;9.52;1.95;;;;;;;;;;5032814;28;20053;-67
2022/02/06 10:40:22;;;;;;;5.80;1.70;;;;;;;;;;5044440;28;20450;-65
2022/02/06 10:43:11;;;;;;;7.15;1.52;;;;;;;;;;5063360;28;20033;-68
2022/02/06 10:46:07;;;;;;;6.40;1.83;;;;;;;;;;5055197;28;20033;-70
2022/02/06 10:48:53;;;;;;;6.70;1.77;;;;;;;;;;5062544;28;20490;-70
2022/02/06 10:51:40;;;;;;;10.75;2.00;;;;;;;;;;5052099;28;20025;-70
2022/02/06 10:54:28;;;;;;;4.85;1.60;;;;;;;;;;5047424;28;20119;-69
2022/02/06 10:57:15;;;;;;;6.05;3.47;;;;;;;;;;5041417;28;20097;-68
2022/02/06 11:00:02;;;;;;;4.70;1.60;;;;;;;;;;5044111;28;20426;-69
2022/02/06 11:02:59;;;;;;;5.68;2.13;;;;;;;;;;5057348;28;20091;-74
2022/02/06 11:05:50;;;;;;;3.75;1.60;;;;;;;;;;5065924;28;20025;-74
2022/02/06 11:08:37;;;;;;;9.68;1.85;;;;;;;;;;5065710;28;20501;-73
2022/02/06 11:11:31;;;;;;;6.53;2.08;;;;;;;;;;5035786;28;20029;-74
2022/02/06 11:14:27;;;;;;;4.95;1.98;;;;;;;;;;5062540;28;20036;-75
2022/02/06 11:17:20;;;;;;;5.68;1.58;;;;;;;;;;5040372;28;20044;-77
2022/02/06 11:20:07;;;;;;;5.53;1.85;;;;;;;;;;5031242;28;20071;-63
2022/02/06 11:22:57;;;;;;;6.10;1.98;;;;;;;;;;5048332;28;20032;-63
2022/02/06 11:25:43;;;;;;;2.88;1.48;;;;;;;;;;5054990;28;20037;-64
2022/02/06 11:28:29;;;;;;;6.45;1.38;;;;;;;;;;5062158;28;20040;-68
2022/02/06 11:31:15;;;;;;;4.82;1.90;;;;;;;;;;5056020;28;20024;-65
2022/02/06 11:34:00;;;;;;;4.80;1.27;;;;;;;;;;5047450;28;20382;-71
2022/02/06 11:46:10;;;;;;;6.88;1.77;;;;;;;;;;5047527;28;20045;-65
2022/02/06 11:49:25;;;;;;;5.82;1.70;;;;;;;;;;5031829;28;20506;-67
2022/02/06 11:52:10;;;;;;;2.65;1.38;;;;;;;;;;5048235;28;20083;-63
2022/02/06 11:54:58;;;;;;;10.10;1.63;;;;;;;;;;5050641;28;20059;-65
2022/02/06 11:57:46;;;;;;;5.78;1.58;;;;;;;;;;5034447;28;20505;-75
2022/02/06 12:00:31;;;;;;;2.50;1.05;;;;;;;;;;5054154;28;20037;-74
2022/02/06 12:03:16;;;;;;;5.65;1.27;;;;;;;;;;5025741;28;20433;-76
2022/02/06 12:06:02;;;;;;;3.40;1.27;;;;;;;;;;5062951;28;20040;-77
2022/02/06 12:09:00;;;;;;;5.45;1.20;;;;;;;;;;5041285;28;20047;-73
2022/02/06 12:12:05;;;;;;;3.30;1.30;;;;;;;;;;5051621;28;20418;-78
2022/02/06 12:15:11;;;;;;;8.73;2.08;;;;;;;;;;5043693;28;20486;-67
2022/02/06 12:18:10;;;;;;;2.65;1.15;;;;;;;;;;5045193;28;20063;-67
2022/02/06 12:20:57;;;;;;;4.72;1.15;;;;;;;;;;5049634;28;20027;-64
2022/02/06 12:23:42;;;;;;;3.08;1.48;;;;;;;;;;5051596;28;20386;-66
2022/02/06 12:26:29;;;;;;;5.30;1.60;;;;;;;;;;5040411;28;20032;-66
2022/02/06 12:29:19;;;;;;;1.55;1.00;;;;;;;;;;5050677;28;20913;-69
2022/02/06 12:32:06;;;;;;;;;;;;;;;;;;5044299;28;20048;-70
2022/02/06 12:37:59;;;;;;;2.03;1.17;;;;;;;;;;5039112;28;20025;-65
2022/02/06 12:40:44;;;;;;;3.25;1.20;;;;;;;;;;5055429;28;20033;-66
2022/02/06 12:43:32;;;;;;;4.97;1.35;;;;;;;;;;5046117;28;20595;-66
2022/02/06 12:46:18;;;;;;;3.33;1.20;;;;;;;;;;5038318;28;20031;-65
2022/02/06 12:49:03;;;;;;;3.78;1.13;;;;;;;;;;5060035;28;20040;-67
2022/02/06 12:51:56;;;;;;;3.45;1.67;;;;;;;;;;5046207;28;20043;-68
2022/02/06 12:54:41;;;;;;;2.70;1.48;;;;;;;;;;5068263;28;20119;-68
2022/02/06 12:57:27;;;;;;;3.42;1.10;;;;;;;;;;5048835;28;20044;-67
2022/02/06 13:00:23;;;;;;;3.20;1.23;;;;;;;;;;5050634;28;20087;-66
2022/02/06 13:03:15;;;;;;;3.63;1.20;;;;;;;;;;5050115;28;20036;-68
2022/02/06 13:06:08;;;;;;;4.93;1.50;;;;;;;;;;5036896;28;20032;-65
2022/02/06 13:08:53;;;;;;;2.88;0.88;;;;;;;;;;5052583;28;20087;-68
2022/02/06 13:11:53;;;;;;;1.90;1.02;;;;;;;;;;5033252;28;20071;-64
2022/02/06 13:23:49;;;;;;;2.63;0.90;;;;;;;;;;5048972;28;20087;-63
2022/02/06 13:26:44;;;;;;;1.90;0.90;;;;;;;;;;5068357;28;20036;-67
2022/02/06 13:29:52;;;;;;;4.78;1.02;;;;;;;;;;5060554;28;20081;-66
2022/02/06 13:32:54;;;;;;;3.75;0.95;;;;;;;;;;5040362;28;20111;-65
2022/02/06 13:36:06;;;;;;;1.52;1.00;;;;;;;;;;5046832;28;20115;-67
2022/02/06 13:38:55;;;;;;;2.58;1.00;;;;;;;;;;5048118;28;20036;-64
2022/02/06 13:41:40;;;;;;;1.90;0.88;;;;;;;;;;5047366;28;20041;-63
2022/02/06 13:44:26;;;;;;;3.80;0.82;;;;;;;;;;5049944;28;20054;-67
2022/02/06 13:47:11;;;;;;;0.98;0.73;;;;;;;;;;5048938;28;20360;-65
2022/02/06 13:50:00;;;;;;;2.88;0.65;;;;;;;;;;5048424;28;20036;-65
2022/02/06 13:52:46;;;;;;;2.70;1.13;;;;;;;;;;5054645;28;20044;-66
2022/02/06 13:55:31;;;;;;;2.05;0.85;;;;;;;;;;5056444;28;20037;-66
2022/02/06 13:58:19;;;;;;;2.55;1.08;;;;;;;;;;5060038;28;20323;-66
2022/02/06 14:01:05;;;;;;;1.08;0.90;;;;;;;;;;5062443;28;20040;-66
2022/02/06 14:03:56;;;;;;;1.60;1.00;;;;;;;;;;5049302;28;20051;-68
2022/02/06 14:06:47;;;;;;;1.20;0.80;;;;;;;;;;5054916;28;20037;-65
2022/02/06 14:12:27;;;;;;;3.30;1.17;;;;;;;;;;5049480;28;20043;-64
2022/02/06 14:15:19;;;;;;;1.48;0.90;;;;;;;;;;5065537;28;20150;-63
2022/02/06 14:18:06;;;;;;;2.42;1.17;;;;;;;;;;5058496;28;20033;-65
2022/02/06 14:20:55;;;;;;;1.40;0.70;;;;;;;;;;5047986;28;20428;-66
2022/02/06 14:23:41;;;;;;;1.75;0.60;;;;;;;;;;5056372;28;20029;-63
2022/02/06 14:26:26;;;;;;;2.03;1.17;;;;;;;;;;5054963;28;20093;-64
2022/02/06 14:29:15;;;;;;;1.58;0.70;;;;;;;;;;5049385;28;20032;-63
2022/02/06 14:32:22;;;;;;;3.85;1.00;;;;;;;;;;5052935;28;20077;-65
2022/02/06 14:35:15;;;;;;;2.05;0.82;;;;;;;;;;5055469;28;20024;-64
2022/02/06 14:38:04;;;;;;;1.95;1.10;;;;;;;;;;5058442;28;20028;-71
2022/02/06 14:44:12;;;;;;;1.00;0.90;;;;;;;;;;4986445;28;20081;-67
2022/02/06 14:46:58;;;;;;;3.70;0.88;;;;;;;;;;5040028;28;20483;-65
2022/02/06 14:49:43;;;;;;;0.98;0.70;;;;;;;;;;5060144;28;20016;-67
2022/02/06 14:52:28;;;;;;;3.35;1.73;;;;;;;;;;5049900;28;20032;-68
2022/02/06 14:55:14;;;;;;;0.95;0.77;;;;;;;;;;5034887;28;20039;-66
2022/02/06 14:58:00;;;;;;;4.82;0.90;;;;;;;;;;5033141;28;20108;-70
2022/02/06 15:00:46;;;;;;;1.20;0.80;;;;;;;;;;5062399;28;20135;-70
2022/02/06 15:03:31;;;;;;;2.53;0.75;;;;;;;;;;5059539;28;20032;-65
2022/02/06 15:06:17;;;;;;;1.15;0.70;;;;;;;;;;5049410;28;20029;-66
2022/02/06 15:09:02;;;;;;;1.52;0.88;;;;;;;;;;5052580;28;20025;-67
2022/02/06 15:12:08;;;;;;;2.08;0.90;;;;;;;;;;5041886;28;20033;-69
2022/02/06 15:15:00;;;;;;;1.23;0.70;;;;;;;;;;5007561;28;20028;-67
2022/02/06 15:17:46;;;;;;;1.05;0.70;;;;;;;;;;5048131;28;20025;-70
2022/02/06 15:20:32;;;;;;;1.85;0.82;;;;;;;;;;5044892;28;20039;-69
2022/02/06 15:23:17;;;;;;;0.80;0.70;;;;;;;;;;5031765;28;20564;-70
2022/02/06 15:26:02;;;;;;;2.42;1.27;;;;;;;;;;5062119;28;20032;-69
2022/02/06 15:28:51;;;;;;;2.47;0.80;;;;;;;;;;5057279;28;20040;-69
2022/02/06 15:31:36;;;;;;;1.25;0.80;;;;;;;;;;5053011;28;20045;-70
2022/02/06 15:34:21;;;;;;;0.82;0.73;;;;;;;;;;5066906;28;20115;-65
2022/02/06 15:37:07;;;;;;;2.03;0.73;;;;;;;;;;5047077;28;20033;-65
2022/02/06 15:39:53;;;;;;;1.02;0.70;;;;;;;;;;5043898;28;20031;-65
2022/02/06 15:42:38;;;;;;;1.50;0.80;;;;;;;;;;5046821;28;20163;-64
2022/02/06 15:45:24;;;;;;;0.63;0.60;;;;;;;;;;5044504;28;20066;-64
2022/02/06 15:48:09;;;;;;;1.52;0.70;;;;;;;;;;5050076;28;20033;-67
2022/02/06 15:50:55;;;;;;;1.23;0.80;;;;;;;;;;5057025;28;20057;-64
2022/02/06 15:53:40;;;;;;;2.78;1.10;;;;;;;;;;5056219;28;20581;-66
2022/02/06 15:56:25;;;;;;;1.20;0.80;;;;;;;;;;5051382;28;20078;-67
2022/02/06 15:59:10;;;;;;;1.90;0.80;;;;;;;;;;5034949;28;20068;-68
2022/02/06 16:01:56;;;;;;;1.27;0.80;;;;;;;;;;5049214;28;20032;-67
2022/02/06 16:04:41;;;;;;;1.42;0.88;;;;;;;;;;5053005;28;20032;-67
2022/02/06 16:07:27;;;;;;;2.13;0.82;;;;;;;;;;5055669;28;20044;-67
2022/02/06 16:10:12;;;;;;;1.88;0.90;;;;;;;;;;5047887;28;20476;-68
2022/02/06 16:12:57;;;;;;;1.98;0.80;;;;;;;;;;5045539;28;20039;-70
2022/02/06 16:15:43;;;;;;;2.63;1.00;;;;;;;;;;5046200;28;20044;-68
2022/02/06 16:18:28;;;;;;;0.98;0.70;;;;;;;;;;5051955;28;20127;-70
2022/02/06 16:21:13;;;;;;;1.00;0.65;;;;;;;;;;5055103;28;20402;-70
2022/02/06 16:23:59;;;;;;;2.42;0.90;;;;;;;;;;5043849;28;20086;-68
2022/02/06 16:26:44;;;;;;;1.13;1.13;;;;;;;;;;5054716;28;20079;-70
2022/02/06 16:29:30;;;;;;;0.90;0.63;;;;;;;;;;5049530;28;20029;-67
2022/02/06 16:32:16;;;;;;;1.75;0.88;;;;;;;;;;5048157;28;20123;-66
2022/02/06 16:35:01;;;;;;;1.50;0.82;;;;;;;;;;5034021;28;20062;-67
2022/02/06 16:37:47;;;;;;;2.95;1.10;;;;;;;;;;5033296;28;20036;-68
2022/02/06 16:40:32;;;;;;;2.83;1.10;;;;;;;;;;5050482;28;20142;-66
2022/02/06 16:43:18;;;;;;;1.17;0.77;;;;;;;;;;5041972;28;20423;-68
2022/02/06 16:46:03;;;;;;;1.65;0.85;;;;;;;;;;5035013;28;20037;-66
2022/02/06 16:48:48;;;;;;;1.08;0.70;;;;;;;;;;5043566;28;20033;-68
2022/02/06 16:51:35;;;;;;;0.80;0.70;;;;;;;;;;5045732;28;20497;-67
2022/02/06 16:54:20;;;;;;;2.08;0.93;;;;;;;;;;5064089;28;20047;-66
2022/02/06 16:57:06;;;;;;;1.77;0.90;;;;;;;;;;5039060;28;20051;-68
2022/02/06 16:59:51;;;;;;;0.93;0.80;;;;;;;;;;5027076;28;20043;-71
2022/02/06 17:02:36;;;;;;;1.27;1.17;;;;;;;;;;5064806;28;20410;-70
2022/02/06 17:05:22;;;;;;;2.28;0.90;;;;;;;;;;5055421;28;20044;-67
2022/02/06 17:08:08;;;;;;;1.52;0.90;;;;;;;;;;5058386;28;20025;-65
2022/02/06 17:10:53;;;;;;;1.15;0.80;;;;;;;;;;5051480;28;20025;-64
2022/02/06 17:13:38;;;;;;;2.80;1.05;;;;;;;;;;5050369;28;20201;-64
2022/02/06 17:16:23;;;;;;;1.83;0.80;;;;;;;;;;5044123;28;20455;-65
2022/02/06 17:19:09;;;;;;;1.77;0.80;;;;;;;;;;5034749;28;20033;-67
2022/02/06 17:21:55;;;;;;;1.05;0.90;;;;;;;;;;5038355;28;20031;-65
2022/02/06 17:24:43;;;;;;;3.03;0.93;;;;;;;;;;5051187;28;20391;-67
2022/02/06 17:27:28;;;;;;;2.88;1.45;;;;;;;;;;5053182;23;20976;-65
2022/02/06 17:30:13;;;;;;;1.75;0.93;;;;;;;;;;5065353;28;20055;-65
2022/02/06 17:32:57;;;;;;;2.67;0.85;;;;;;;;;;5068377;28;20089;-65
2022/02/06 17:35:41;;;;;;;2.80;1.00;;;;;;;;;;5074280;28;20114;-65
2022/02/06 17:38:27;;;;;;;2.00;0.80;;;;;;;;;;5084748;28;20059;-66
2022/02/06 17:41:11;;;;;;;2.33;0.88;;;;;;;;;;5079874;28;20240;-67
2022/02/06 17:43:55;;;;;;;1.17;0.85;;;;;;;;;;5062641;28;20042;-70
2022/02/06 17:46:39;;;;;;;3.03;0.90;;;;;;;;;;5074486;28;20555;-70
2022/02/06 17:49:24;;;;;;;1.30;0.90;;;;;;;;;;5082547;28;20081;-71
2022/02/06 17:52:10;;;;;;;1.88;0.73;;;;;;;;;;5082833;28;20047;-70
2022/02/06 17:54:57;;;;;;;1.25;0.80;;;;;;;;;;5084501;28;20116;-71
2022/02/06 17:57:40;;;;;;;1.58;0.73;;;;;;;;;;5093393;28;20500;-69
2022/02/06 18:00:26;;;;;;;1.10;0.60;;;;;;;;;;5107296;28;20126;-67
2022/02/06 18:03:11;;;;;;;0.90;0.70;;;;;;;;;;5088908;28;20040;-65
2022/02/06 18:05:57;;;;;;;1.63;0.85;;;;;;;;;;5079595;28;20107;-68
2022/02/06 18:08:42;;;;;;;3.20;1.13;;;;;;;;;;5073365;28;20023;-71
2022/02/06 18:11:27;;;;;;;2.75;0.90;;;;;;;;;;5099538;28;20045;-68
2022/02/06 18:14:12;;;;;;;0.90;0.73;;;;;;;;;;5091351;28;20477;-67
2022/02/06 18:16:58;;;;;;;3.53;0.88;;;;;;;;;;5090805;28;20111;-67
2022/02/06 18:19:43;;;;;;;1.27;0.80;;;;;;;;;;5090569;28;20103;-65
2022/02/06 18:22:28;;;;;;;1.40;0.60;;;;;;;;;;5081170;28;20439;-64
2022/02/06 18:25:15;;;;;;;0.70;0.70;;;;;;;;;;5090321;28;20060;-63
2022/02/06 18:28:02;;;;;;;0.68;0.68;;;;;;;;;;5078990;28;20039;-64
2022/02/06 18:30:47;;;;;;;1.35;0.68;;;;;;;;;;5083300;28;20035;-66
2022/02/06 18:33:33;;;;;;;1.85;0.70;;;;;;;;;;5067516;28;20058;-66
2022/02/06 18:36:18;;;;;;;1.65;0.95;;;;;;;;;;5078798;28;20042;-66
2022/02/06 18:39:03;;;;;;;1.95;1.05;;;;;;;;;;5077659;28;20601;-71
2022/02/06 18:41:49;;;;;;;1.13;0.60;;;;;;;;;;5069770;28;20633;-63
2022/02/06 18:44:35;;;;;;;0.60;0.57;;;;;;;;;;5092094;28;20026;-63
2022/02/06 18:47:20;;;;;;;0.63;0.57;;;;;;;;;;5087145;28;20066;-62
2022/02/06 18:50:06;;;;;;;2.45;1.08;;;;;;;;;;5104066;28;20042;-68
2022/02/06 18:52:52;;;;;;;1.70;0.82;;;;;;;;;;5083118;28;20118;-64
2022/02/06 18:55:37;;;;;;;2.53;1.00;;;;;;;;;;5094337;28;20378;-63
2022/02/06 18:58:23;;;;;;;2.55;1.00;;;;;;;;;;5095400;28;20031;-70
2022/02/06 19:01:11;;;;;;;2.58;0.60;;;;;;;;;;5083654;28;20493;-72
2022/02/06 19:03:57;;;;;;;2.00;0.80;;;;;;;;;;5090480;28;20033;-73
2022/02/06 19:06:42;;;;;;;0.70;0.70;;;;;;;;;;5090924;28;20389;-74
2022/02/06 19:09:28;;;;;;;1.95;0.70;;;;;;;;;;5079641;28;20039;-71
2022/02/06 19:12:14;;;;;;;2.25;0.75;;;;;;;;;;5067746;28;20036;-71
2022/02/06 19:15:00;;;;;;;1.58;0.63;;;;;;;;;;5080812;28;20256;-63